Time;durP1;ratioP1;P1;durP2;ratioP2;P2;SDS_P1;SDS_P2;PMS_P1;PMS_P2;Temp;Humidity;BMP_temperature;BMP_pressure;BME280_temperature;BME280_humidity;BME280_pressure;Samples;Min_cycle;Max_cycle;Signal;HPM_P1;HPM_P2
2022/06/19 00:02:44;;;;;;;3.50;2.38;;;27.90;40.30;;;;;;8462867;28;20039;-41
2022/06/19 00:06:45;;;;;;;6.70;2.40;;;27.90;40.30;;;;;;8462984;28;20084;-42
2022/06/19 00:10:45;;;;;;;4.82;2.50;;;27.80;40.30;;;;;;8462601;28;20039;-41
2022/06/19 00:14:46;;;;;;;4.43;2.50;;;27.90;40.30;;;;;;8462842;28;20389;-41
2022/06/19 00:18:47;;;;;;;3.63;2.20;;;27.90;40.40;;;;;;8462678;28;20036;-42
2022/06/19 00:22:47;;;;;;;4.28;2.47;;;27.90;40.40;;;;;;8462174;28;20534;-41
2022/06/19 00:26:48;;;;;;;4.53;2.55;;;27.80;40.30;;;;;;8462855;28;20035;-41
2022/06/19 00:30:48;;;;;;;4.90;2.13;;;27.80;40.30;;;;;;8462601;28;20073;-42
2022/06/19 00:34:49;;;;;;;4.22;2.30;;;27.80;40.30;;;;;;8464126;28;20051;-42
2022/06/19 00:38:50;;;;;;;5.55;2.25;;;27.80;40.40;;;;;;8469255;28;20444;-41
2022/06/19 00:42:50;;;;;;;4.60;2.60;;;27.80;40.40;;;;;;8468907;28;20036;-41
2022/06/19 00:47:11;;;;;;;3.80;2.22;;;27.80;40.40;;;;;;8468225;28;20035;-42
2022/06/19 00:51:12;;;;;;;;;;;27.80;40.40;;;;;;8469106;28;20035;-42
2022/06/19 00:55:28;;;;;;;3.80;2.37;;;27.70;40.40;;;;;;8468185;27;19915;-41
2022/06/19 00:59:29;;;;;;;6.63;2.30;;;27.70;40.40;;;;;;8468514;28;20626;-42
2022/06/19 01:03:37;;;;;;;3.35;2.45;;;27.70;40.40;;;;;;8468255;27;20075;-41
2022/06/19 01:07:40;;;;;;;3.47;2.60;;;27.70;40.50;;;;;;8466443;28;20032;-42
2022/06/19 01:11:41;;;;;;;5.88;2.30;;;27.70;40.50;;;;;;8467799;28;20063;-42
2022/06/19 01:15:42;;;;;;;2.95;2.10;;;27.70;40.50;;;;;;8468008;28;20077;-42
2022/06/19 01:19:43;;;;;;;3.15;2.38;;;27.70;40.50;;;;;;8467176;27;20068;-41
2022/06/19 01:24:07;;;;;;;4.47;2.60;;;27.60;40.40;;;;;;8467503;28;20031;-42
2022/06/19 01:32:36;;;;;;;6.13;2.40;;;27.60;40.50;;;;;;8466922;28;20031;-42
2022/06/19 01:36:37;;;;;;;5.80;2.70;;;27.60;40.60;;;;;;8467259;28;20534;-41
2022/06/19 01:40:41;;;;;;;4.95;2.30;;;27.60;40.50;;;;;;8466786;27;20066;-42
2022/06/19 01:44:44;;;;;;;4.32;2.22;;;27.60;40.50;;;;;;8466600;28;20097;-42
2022/06/19 01:48:45;;;;;;;2.78;2.00;;;27.60;40.50;;;;;;8466007;28;20537;-41
2022/06/19 01:52:50;;;;;;;4.07;2.30;;;27.60;40.60;;;;;;8466193;28;20028;-41
2022/06/19 01:56:53;;;;;;;6.15;2.60;;;27.60;40.60;;;;;;8466753;28;20122;-41
2022/06/19 02:00:54;;;;;;;4.90;2.30;;;27.50;40.60;;;;;;8466600;27;20491;-41
2022/06/19 02:04:54;;;;;;;;;;;27.50;40.60;;;;;;8466297;28;20040;-41
2022/06/19 02:08:55;;;;;;;7.15;2.40;;;27.50;40.60;;;;;;8466220;27;19919;-41
2022/06/19 02:13:00;;;;;;;3.35;2.40;;;27.50;40.60;;;;;;8465784;28;20079;-43
2022/06/19 02:17:13;;;;;;;5.93;2.60;;;27.50;40.60;;;;;;8465393;28;20047;-42
2022/06/19 02:21:18;;;;;;;5.15;2.35;;;27.50;40.60;;;;;;8465891;28;20032;-42
2022/06/19 02:25:19;;;;;;;4.20;2.10;;;27.50;40.60;;;;;;8465307;28;20063;-41
2022/06/19 02:29:20;;;;;;;;;;;27.50;40.70;;;;;;8465911;28;20059;-42
2022/06/19 02:33:26;;;;;;;4.53;2.85;;;27.50;40.70;;;;;;8465304;28;20002;-41
2022/06/19 02:37:31;;;;;;;2.47;2.00;;;27.40;40.70;;;;;;8464768;28;20114;-41
2022/06/19 02:41:42;;;;;;;3.63;2.30;;;27.40;40.60;;;;;;8465601;27;20031;-41
2022/06/19 02:45:43;;;;;;;2.97;2.25;;;27.40;40.70;;;;;;8465010;28;20036;-41
2022/06/19 02:49:44;;;;;;;;;;;27.40;40.70;;;;;;8464783;27;20036;-42
2022/06/19 02:53:45;;;;;;;4.95;2.58;;;27.40;40.70;;;;;;8464690;28;19967;-42
2022/06/19 02:57:46;;;;;;;6.43;2.58;;;27.40;40.70;;;;;;8464295;27;20507;-41
2022/06/19 03:01:46;;;;;;;3.33;2.20;;;27.40;40.70;;;;;;8464243;27;20027;-41
2022/06/19 03:05:47;;;;;;;4.45;1.90;;;27.40;40.70;;;;;;8464276;28;20067;-41
2022/06/19 03:09:47;;;;;;;6.07;2.42;;;27.40;40.70;;;;;;8464120;27;20050;-41
2022/06/19 03:13:49;;;;;;;4.68;2.20;;;27.40;40.70;;;;;;8463590;28;20069;-41
2022/06/19 03:17:49;;;;;;;5.13;2.80;;;27.40;40.80;;;;;;8464162;28;20043;-41
2022/06/19 03:21:50;;;;;;;;;;;27.30;40.70;;;;;;8464567;28;20034;-41
2022/06/19 03:25:52;;;;;;;3.63;2.25;;;27.30;40.70;;;;;;8463424;28;19915;-41
2022/06/19 03:29:53;;;;;;;3.63;2.30;;;27.30;40.80;;;;;;8463660;28;20530;-42
2022/06/19 03:33:53;;;;;;;;;;;27.30;40.70;;;;;;8464021;28;20096;-42
2022/06/19 03:37:54;;;;;;;4.70;2.13;;;27.30;40.70;;;;;;8463083;28;20011;-42
2022/06/19 03:41:54;;;;;;;;;;;27.30;40.80;;;;;;8464310;28;20032;-42
2022/06/19 03:46:07;;;;;;;6.23;2.40;;;27.30;40.80;;;;;;8463443;28;19918;-41
2022/06/19 03:50:12;;;;;;;4.90;2.10;;;27.30;40.80;;;;;;8462816;28;20040;-42
2022/06/19 03:54:13;;;;;;;5.88;2.42;;;27.30;40.80;;;;;;8463137;28;20051;-41
2022/06/19 03:58:13;;;;;;;;;;;27.30;40.80;;;;;;8463195;28;20400;-41
2022/06/19 04:02:14;;;;;;;4.13;2.10;;;27.30;40.80;;;;;;8463304;28;20002;-41
2022/06/19 04:06:16;;;;;;;3.60;2.50;;;27.30;40.80;;;;;;8463180;28;20032;-41
2022/06/19 04:10:19;;;;;;;3.17;2.47;;;27.20;40.80;;;;;;8464585;28;20028;-41
2022/06/19 04:14:19;;;;;;;4.93;2.40;;;27.20;40.70;;;;;;8469633;28;20051;-40
2022/06/19 04:18:19;;;;;;;;;;;27.20;40.80;;;;;;8470137;28;20024;-42
2022/06/19 04:22:20;;;;;;;5.10;2.27;;;27.20;40.80;;;;;;8469318;28;19907;-41
2022/06/19 04:26:21;;;;;;;;;;;27.20;40.80;;;;;;8470043;28;20057;-41
2022/06/19 04:30:22;;;;;;;5.47;2.47;;;27.20;40.80;;;;;;8469313;28;19965;-41
2022/06/19 04:34:22;;;;;;;4.95;2.45;;;27.20;40.80;;;;;;8468807;28;20035;-41
2022/06/19 04:38:23;;;;;;;;;;;27.20;40.80;;;;;;8469899;28;20107;-42
2022/06/19 04:42:23;;;;;;;4.83;2.50;;;27.20;40.80;;;;;;8469218;28;20327;-42
2022/06/19 04:46:25;;;;;;;6.30;2.67;;;27.20;40.80;;;;;;8468496;27;20381;-41
2022/06/19 04:50:25;;;;;;;5.80;2.80;;;27.20;40.80;;;;;;8468965;28;20123;-41
2022/06/19 04:54:26;;;;;;;;;;;27.20;40.80;;;;;;8469053;28;20055;-41
2022/06/19 04:58:27;;;;;;;4.37;2.37;;;27.10;40.70;;;;;;8468120;28;19911;-41
2022/06/19 05:02:27;;;;;;;4.03;2.47;;;27.20;40.80;;;;;;8468422;28;20096;-41
2022/06/19 05:06:28;;;;;;;;;;;27.10;40.70;;;;;;8468667;28;20040;-41
2022/06/19 05:10:29;;;;;;;4.47;2.40;;;27.20;40.80;;;;;;8467690;28;19944;-41
2022/06/19 05:14:29;;;;;;;3.72;2.83;;;27.10;40.70;;;;;;8467814;27;20051;-41
2022/06/19 05:18:30;;;;;;;4.63;2.50;;;27.20;40.70;;;;;;8467912;28;20028;-41
2022/06/19 05:22:33;;;;;;;5.57;2.20;;;27.20;40.60;;;;;;8467304;28;20059;-41
2022/06/19 05:26:34;;;;;;;4.13;2.40;;;27.30;40.60;;;;;;8467702;28;20400;-41
2022/06/19 05:30:35;;;;;;;4.55;2.50;;;27.30;40.50;;;;;;8467479;27;20081;-42
2022/06/19 05:34:36;;;;;;;;;;;27.20;40.40;;;;;;8467251;28;20047;-41
2022/06/19 05:38:36;;;;;;;6.38;2.50;;;27.20;40.50;;;;;;8467793;27;19908;-42
2022/06/19 05:42:37;;;;;;;5.28;2.70;;;27.20;40.50;;;;;;8467451;28;20135;-41
2022/06/19 05:46:38;;;;;;;4.63;2.58;;;27.20;40.50;;;;;;8466436;28;20023;-41
2022/06/19 05:50:38;;;;;;;5.60;2.38;;;27.20;40.50;;;;;;8466956;28;20032;-41
2022/06/19 05:54:39;;;;;;;4.45;2.60;;;27.20;40.50;;;;;;8466659;28;20434;-42
2022/06/19 05:58:41;;;;;;;;;;;27.20;40.50;;;;;;8466365;28;20126;-41
2022/06/19 06:02:42;;;;;;;6.38;2.83;;;27.20;40.50;;;;;;8466330;28;20451;-41
2022/06/19 06:06:42;;;;;;;;;;;27.20;40.50;;;;;;8466378;28;20053;-41
2022/06/19 06:10:43;;;;;;;3.70;2.73;;;27.20;40.60;;;;;;8465345;28;19956;-41
2022/06/19 06:14:44;;;;;;;3.90;2.20;;;27.20;40.60;;;;;;8465909;28;20039;-41
2022/06/19 06:18:44;;;;;;;;;;;27.20;40.50;;;;;;8466093;28;20039;-41
2022/06/19 06:22:45;;;;;;;5.97;2.60;;;27.20;40.50;;;;;;8465298;28;20284;-41
2022/06/19 06:26:45;;;;;;;4.57;2.58;;;27.20;40.50;;;;;;8465332;28;20040;-41
2022/06/19 06:30:46;;;;;;;5.05;2.38;;;27.20;40.60;;;;;;8465076;28;20039;-41
2022/06/19 06:34:46;;;;;;;4.75;2.65;;;27.20;40.50;;;;;;8463729;28;20131;-41
2022/06/19 06:38:47;;;;;;;5.95;2.80;;;27.20;40.60;;;;;;8464835;28;20062;-40
2022/06/19 06:42:48;;;;;;;;;;;27.10;40.50;;;;;;8465249;27;20373;-41
2022/06/19 06:46:48;;;;;;;5.50;2.33;;;27.20;40.50;;;;;;8464120;27;19912;-42
2022/06/19 06:50:49;;;;;;;4.70;2.58;;;27.20;40.60;;;;;;8464726;27;20023;-42
2022/06/19 06:54:49;;;;;;;;;;;27.20;40.60;;;;;;8464646;28;20150;-42
2022/06/19 06:58:50;;;;;;;6.33;2.80;;;27.20;40.60;;;;;;8463832;28;20291;-42
2022/06/19 07:02:51;;;;;;;6.97;2.47;;;27.10;40.50;;;;;;8464206;28;20024;-42
2022/06/19 07:06:51;;;;;;;5.78;2.22;;;27.10;40.50;;;;;;8463823;28;20038;-42
2022/06/19 07:10:52;;;;;;;4.68;2.50;;;27.20;40.50;;;;;;8462429;27;20059;-42
2022/06/19 07:14:52;;;;;;;;;;;27.20;40.60;;;;;;8463979;28;20051;-42
2022/06/19 07:18:53;;;;;;;3.70;2.10;;;27.20;40.60;;;;;;8463612;27;19907;-42
2022/06/19 07:22:53;;;;;;;4.20;2.17;;;27.20;40.60;;;;;;8463182;28;20036;-42
2022/06/19 07:26:54;;;;;;;3.33;2.58;;;27.20;40.60;;;;;;8463409;28;20535;-42
2022/06/19 07:30:54;;;;;;;4.05;2.95;;;27.20;40.60;;;;;;8463142;28;20040;-41
2022/06/19 07:34:55;;;;;;;3.22;2.25;;;27.20;40.50;;;;;;8462540;28;20120;-41
2022/06/19 07:38:56;;;;;;;4.88;2.30;;;27.20;40.60;;;;;;8463314;28;20020;-42
2022/06/19 07:42:56;;;;;;;4.18;2.55;;;27.20;40.50;;;;;;8462797;28;20118;-42
2022/06/19 07:51:16;;;;;;;5.45;2.03;;;27.20;40.50;;;;;;8463036;28;19918;-42
2022/06/19 07:55:18;;;;;;;;;;;27.30;40.60;;;;;;8462731;28;20039;-41
2022/06/19 07:59:18;;;;;;;3.67;2.78;;;27.30;40.60;;;;;;8462742;28;19969;-41
2022/06/19 08:03:19;;;;;;;;;;;27.30;40.60;;;;;;8463441;28;20066;-41
2022/06/19 08:07:20;;;;;;;5.20;3.03;;;27.30;40.60;;;;;;8462167;28;20007;-41
2022/06/19 08:11:20;;;;;;;;;;;27.30;40.60;;;;;;8462920;28;20040;-42
2022/06/19 08:15:22;;;;;;;4.67;2.47;;;27.30;40.60;;;;;;8462584;28;19920;-42
2022/06/19 08:19:22;;;;;;;4.53;2.60;;;27.30;40.60;;;;;;8461967;28;20076;-42
2022/06/19 08:23:22;;;;;;;;;;;27.40;40.60;;;;;;8463373;28;20023;-42
2022/06/19 08:27:23;;;;;;;4.37;2.53;;;27.40;40.60;;;;;;8462780;28;19916;-42
2022/06/19 08:31:23;;;;;;;3.45;2.47;;;27.40;40.70;;;;;;8461921;28;20042;-42
2022/06/19 08:35:24;;;;;;;;;;;27.40;40.70;;;;;;8462387;28;20063;-41
2022/06/19 08:39:26;;;;;;;4.07;2.60;;;27.40;40.60;;;;;;8462415;28;20408;-41
2022/06/19 08:43:29;;;;;;;4.82;2.30;;;27.40;40.60;;;;;;8461927;28;20052;-41
2022/06/19 08:47:41;;;;;;;5.25;2.80;;;27.40;40.70;;;;;;8461914;28;20115;-41
2022/06/19 08:51:57;;;;;;;3.22;2.28;;;27.50;40.70;;;;;;8461962;28;20039;-42
2022/06/19 08:56:12;;;;;;;3.47;2.13;;;27.40;40.60;;;;;;8443665;28;20496;-41
2022/06/19 09:00:20;;;;;;;4.60;2.95;;;27.50;40.70;;;;;;8468183;28;20034;-41
2022/06/19 09:09:31;;;;;;;3.38;2.72;;;27.50;40.70;;;;;;8468292;28;20054;-42
2022/06/19 09:14:02;;;;;;;2.58;2.10;;;27.50;40.70;;;;;;8467369;28;20060;-42
2022/06/19 09:18:05;;;;;;;6.53;2.42;;;27.50;40.60;;;;;;8467664;28;20046;-42
2022/06/19 09:22:21;;;;;;;3.95;2.55;;;27.50;40.70;;;;;;8467750;28;20028;-42
2022/06/19 09:26:31;;;;;;;3.45;2.33;;;27.60;40.70;;;;;;8467399;28;20047;-41
2022/06/19 09:30:42;;;;;;;3.95;2.53;;;27.60;40.70;;;;;;8467423;28;20369;-41
2022/06/19 09:34:56;;;;;;;3.90;2.40;;;27.60;40.60;;;;;;8466732;28;20055;-42
2022/06/19 09:39:15;;;;;;;2.90;2.40;;;27.60;40.60;;;;;;8467502;27;20472;-42
2022/06/19 09:43:33;;;;;;;4.18;2.50;;;27.60;40.60;;;;;;8466570;27;20499;-41
2022/06/19 09:47:45;;;;;;;2.58;2.38;;;27.70;40.70;;;;;;8466524;27;20395;-41
2022/06/19 09:52:20;;;;;;;5.18;2.63;;;27.70;40.70;;;;;;8466154;28;20035;-41
2022/06/19 09:56:50;;;;;;;3.10;2.30;;;27.70;40.60;;;;;;8461725;28;20047;-41
2022/06/19 10:00:56;;;;;;;4.35;2.65;;;27.70;40.60;;;;;;8466370;27;20537;-42
2022/06/19 10:05:05;;;;;;;4.20;2.85;;;27.80;40.70;;;;;;8463954;27;20521;-42
2022/06/19 10:09:12;;;;;;;3.90;2.47;;;27.80;40.70;;;;;;8460762;28;20119;-42
2022/06/19 10:13:29;;;;;;;3.70;2.45;;;27.80;40.70;;;;;;8465510;28;20088;-41
2022/06/19 10:17:54;;;;;;;4.10;2.75;;;27.90;40.70;;;;;;8465829;27;20031;-42
2022/06/19 10:22:26;;;;;;;4.65;2.40;;;27.80;40.60;;;;;;8465607;27;20122;-41
2022/06/19 10:26:53;;;;;;;3.22;2.20;;;27.90;40.60;;;;;;8465545;28;20035;-41
2022/06/19 10:31:04;;;;;;;3.00;2.70;;;27.90;40.70;;;;;;8465572;28;20039;-42
2022/06/19 10:35:09;;;;;;;3.55;2.42;;;28.00;40.70;;;;;;8464804;28;20044;-41
2022/06/19 10:39:28;;;;;;;3.72;2.30;;;28.00;40.60;;;;;;8465300;28;20472;-41
2022/06/19 10:44:03;;;;;;;4.53;2.70;;;28.00;40.60;;;;;;8464607;28;20085;-42
2022/06/19 10:48:25;;;;;;;4.82;2.47;;;28.00;40.60;;;;;;8435745;27;20130;-42
2022/06/19 10:52:56;;;;;;;3.60;2.38;;;28.00;40.60;;;;;;8463996;28;20031;-42
2022/06/19 10:57:11;;;;;;;3.42;2.30;;;28.10;40.60;;;;;;8464606;27;20118;-41
2022/06/19 11:04:06;;;;;;;3.13;2.60;;;28.10;40.60;;;;;;8464027;28;20496;-41
2022/06/19 11:05:48;;;;;;;2.47;1.92;;;28.10;40.60;;;;;;8464397;28;20432;-42
2022/06/19 11:09:53;;;;;;;3.13;2.80;;;28.10;40.50;;;;;;8450462;28;20028;-42
2022/06/19 11:14:12;;;;;;;3.42;2.47;;;28.20;40.60;;;;;;8462923;28;20039;-41
2022/06/19 11:18:25;;;;;;;3.53;2.25;;;28.20;40.50;;;;;;8458191;28;20035;-42
2022/06/19 11:22:31;;;;;;;2.97;2.42;;;28.20;40.50;;;;;;8462832;28;20024;-42
2022/06/19 11:26:39;;;;;;;3.90;2.63;;;28.20;40.50;;;;;;8463975;28;20504;-41
2022/06/19 11:30:48;;;;;;;3.72;2.55;;;28.30;40.50;;;;;;8463562;28;20122;-42
2022/06/19 11:35:03;;;;;;;2.65;2.17;;;28.30;40.50;;;;;;8463166;28;20139;-42
2022/06/19 11:39:37;;;;;;;3.67;2.70;;;28.30;40.40;;;;;;8458692;28;20040;-43
2022/06/19 11:43:38;;;;;;;4.05;2.70;;;28.40;40.50;;;;;;8403498;28;20028;-42
2022/06/19 11:47:41;;;;;;;2.75;2.45;;;28.40;40.50;;;;;;8447492;28;20048;-42
2022/06/19 11:51:45;;;;;;;3.28;2.78;;;28.40;40.40;;;;;;8462516;28;20031;-42
2022/06/19 11:55:47;;;;;;;2.90;2.53;;;28.40;40.40;;;;;;8461616;28;20050;-42
2022/06/19 11:59:54;;;;;;;2.88;2.13;;;28.40;40.40;;;;;;8461758;28;20511;-42
2022/06/19 12:03:57;;;;;;;3.80;2.67;;;28.50;40.40;;;;;;8461283;28;20511;-43
2022/06/19 12:08:11;;;;;;;3.55;2.40;;;28.50;40.40;;;;;;8461584;28;20035;-42
2022/06/19 12:12:11;;;;;;;3.17;2.63;;;28.50;40.40;;;;;;8456172;28;20135;-42
2022/06/19 12:16:17;;;;;;;3.40;2.35;;;28.50;40.40;;;;;;8452954;28;20036;-42
2022/06/19 12:20:24;;;;;;;4.85;3.13;;;28.60;40.40;;;;;;8455200;28;20046;-42
2022/06/19 12:24:41;;;;;;;6.25;2.85;;;28.60;40.40;;;;;;8451522;28;20047;-42
2022/06/19 12:29:00;;;;;;;3.78;2.78;;;28.60;40.40;;;;;;8458316;28;20059;-42
2022/06/19 12:33:08;;;;;;;2.78;2.50;;;28.60;40.40;;;;;;8445884;27;20087;-42
2022/06/19 12:37:15;;;;;;;3.53;2.75;;;28.60;40.40;;;;;;8465090;28;20038;-42
2022/06/19 12:41:18;;;;;;;5.32;2.65;;;28.70;40.40;;;;;;8450020;28;20046;-42
2022/06/19 12:45:53;;;;;;;3.63;2.55;;;28.70;40.40;;;;;;8467286;28;20433;-41
2022/06/19 12:50:06;;;;;;;4.63;2.70;;;28.70;40.40;;;;;;8449904;28;20040;-41
2022/06/19 12:54:13;;;;;;;4.68;2.80;;;28.70;40.40;;;;;;8443657;28;20381;-41
2022/06/19 12:58:31;;;;;;;3.42;2.38;;;28.70;40.40;;;;;;8457248;27;20392;-41
2022/06/19 13:03:14;;;;;;;3.95;2.30;;;28.80;40.30;;;;;;8463295;28;20063;-41
2022/06/19 13:07:48;;;;;;;3.85;2.55;;;28.80;40.40;;;;;;8449838;28;20040;-41
2022/06/19 13:12:39;;;;;;;3.75;2.67;;;28.80;40.30;;;;;;8429428;28;20044;-41
2022/06/19 13:17:05;;;;;;;6.97;3.65;;;28.80;40.30;;;;;;8430804;28;20035;-42
2022/06/19 13:21:15;;;;;;;3.92;2.72;;;28.90;40.10;;;;;;8452840;28;20123;-41
2022/06/19 13:25:16;;;;;;;4.50;2.60;;;28.90;40.20;;;;;;8449310;28;20032;-41
2022/06/19 13:29:27;;;;;;;2.80;2.13;;;28.90;40.20;;;;;;8445750;28;20043;-42
2022/06/19 13:33:44;;;;;;;5.47;2.85;;;28.90;40.20;;;;;;8465014;28;20100;-42
2022/06/19 13:38:18;;;;;;;3.40;3.08;;;29.00;40.30;;;;;;8450325;28;20486;-42
2022/06/19 13:42:33;;;;;;;4.63;2.92;;;29.00;40.30;;;;;;8444147;28;20043;-41
2022/06/19 13:46:57;;;;;;;3.50;2.67;;;29.00;40.20;;;;;;8450941;28;20382;-41
2022/06/19 13:51:14;;;;;;;2.88;2.33;;;29.10;40.30;;;;;;8462256;28;20061;-41
2022/06/19 13:55:39;;;;;;;2.90;2.58;;;29.10;40.80;;;;;;8465422;28;20053;-41
2022/06/19 13:59:57;;;;;;;3.67;2.50;;;29.10;40.30;;;;;;8466404;28;20565;-41
2022/06/19 14:08:46;;;;;;;4.97;2.75;;;29.10;40.30;;;;;;8465772;28;20038;-42
2022/06/19 14:12:59;;;;;;;2.97;2.60;;;29.10;40.20;;;;;;8466124;27;20031;-42
2022/06/19 14:17:25;;;;;;;2.78;2.47;;;29.20;40.30;;;;;;8465388;28;20097;-43
2022/06/19 14:21:40;;;;;;;3.95;2.42;;;29.10;40.20;;;;;;8460095;28;20050;-42
2022/06/19 14:26:11;;;;;;;3.22;2.83;;;29.20;40.30;;;;;;8462875;28;20040;-43
2022/06/19 14:30:17;;;;;;;3.50;2.40;;;29.20;40.30;;;;;;8458962;28;20144;-42
2022/06/19 14:34:51;;;;;;;2.88;2.50;;;29.20;40.30;;;;;;8437037;28;20038;-42
2022/06/19 14:38:56;;;;;;;3.92;2.72;;;29.20;40.30;;;;;;8459745;28;20031;-42
2022/06/19 14:42:59;;;;;;;3.35;2.65;;;29.20;40.30;;;;;;8464744;28;20038;-42
2022/06/19 14:47:27;;;;;;;3.65;2.22;;;29.20;40.30;;;;;;8464369;28;20051;-42
2022/06/19 14:51:50;;;;;;;4.50;2.58;;;29.20;40.30;;;;;;8465167;27;20042;-42
2022/06/19 14:56:09;;;;;;;3.30;2.70;;;29.20;40.30;;;;;;8463948;27;20526;-43
2022/06/19 15:00:12;;;;;;;3.63;2.90;;;29.30;40.30;;;;;;8464870;27;20084;-43
2022/06/19 15:04:18;;;;;;;2.65;2.45;;;29.30;40.30;;;;;;8463895;28;20111;-42
2022/06/19 15:08:32;;;;;;;3.88;2.55;;;29.30;40.30;;;;;;8464502;28;20491;-42
2022/06/19 15:12:33;;;;;;;3.33;2.20;;;29.30;40.30;;;;;;8464449;28;20365;-42
2022/06/19 15:16:43;;;;;;;2.75;2.30;;;29.40;40.40;;;;;;8463657;28;20027;-42
2022/06/19 15:21:01;;;;;;;2.50;2.30;;;29.40;40.40;;;;;;8464216;27;20047;-43
2022/06/19 15:25:07;;;;;;;2.65;2.40;;;29.30;40.30;;;;;;8463971;28;20433;-42
2022/06/19 15:30:03;;;;;;;3.42;2.70;;;29.30;40.30;;;;;;8463166;28;20078;-42
2022/06/19 15:34:48;;;;;;;2.95;2.63;;;29.40;40.40;;;;;;8437085;28;20073;-43
2022/06/19 15:39:16;;;;;;;3.20;2.60;;;29.40;40.40;;;;;;8463514;28;20032;-42
2022/06/19 15:43:17;;;;;;;3.70;2.88;;;29.40;40.40;;;;;;8454628;28;20377;-42
2022/06/19 15:47:18;;;;;;;2.83;2.50;;;29.40;40.40;;;;;;8463479;28;20028;-42
2022/06/19 15:51:33;;;;;;;3.97;2.72;;;29.40;40.40;;;;;;8462544;28;20459;-41
2022/06/19 15:55:37;;;;;;;3.28;2.75;;;29.40;40.40;;;;;;8461417;28;20036;-42
2022/06/19 15:59:38;;;;;;;2.38;2.17;;;29.40;40.40;;;;;;8448755;28;20107;-42
2022/06/19 16:03:46;;;;;;;4.40;2.60;;;29.40;40.40;;;;;;8438799;28;20042;-41
2022/06/19 16:07:50;;;;;;;2.35;2.15;;;29.40;40.40;;;;;;8466059;28;20084;-41
2022/06/19 16:12:07;;;;;;;4.00;2.90;;;29.50;40.40;;;;;;8468945;28;20039;-41
2022/06/19 16:16:21;;;;;;;3.42;2.80;;;29.50;40.40;;;;;;8469691;28;20067;-41
2022/06/19 16:20:29;;;;;;;2.67;2.42;;;29.50;40.50;;;;;;8469423;28;20039;-41
2022/06/19 16:24:53;;;;;;;3.75;2.45;;;29.50;40.40;;;;;;8469655;28;20043;-41
2022/06/19 16:28:58;;;;;;;2.67;2.25;;;29.50;40.40;;;;;;8469461;28;20039;-42
2022/06/19 16:32:59;;;;;;;3.22;2.55;;;29.50;40.40;;;;;;8469321;28;20028;-42
2022/06/19 16:45:48;;;;;;;3.20;2.70;;;29.50;40.50;;;;;;8468878;27;20093;-43
2022/06/19 16:50:03;;;;;;;2.92;2.35;;;29.50;40.50;;;;;;8468381;28;20036;-42
2022/06/19 16:54:04;;;;;;;2.90;2.30;;;29.50;40.50;;;;;;8468609;28;20048;-42
2022/06/19 16:58:27;;;;;;;3.28;2.53;;;29.50;40.50;;;;;;8468460;28;20399;-43
2022/06/19 17:02:35;;;;;;;3.97;2.72;;;29.50;40.50;;;;;;8457384;28;20111;-42
2022/06/19 17:06:40;;;;;;;2.50;2.30;;;29.50;40.50;;;;;;8468579;28;20036;-43
2022/06/19 17:10:42;;;;;;;2.55;2.33;;;29.60;40.60;;;;;;8467796;28;20031;-42
2022/06/19 17:14:50;;;;;;;4.40;3.08;;;29.50;40.50;;;;;;8468161;28;20039;-42
2022/06/19 17:18:53;;;;;;;3.50;2.78;;;29.50;40.50;;;;;;8467563;28;20081;-42
2022/06/19 17:22:56;;;;;;;4.70;2.97;;;29.60;40.50;;;;;;8467216;28;20028;-42
2022/06/19 17:27:12;;;;;;;3.65;2.80;;;29.60;40.50;;;;;;8467935;28;20050;-42
2022/06/19 17:31:17;;;;;;;2.90;2.58;;;29.60;40.60;;;;;;8467102;28;20032;-42
2022/06/19 17:35:30;;;;;;;2.90;2.47;;;29.60;40.50;;;;;;8467215;28;20077;-42
2022/06/19 17:39:33;;;;;;;3.38;2.72;;;29.60;40.50;;;;;;8466869;28;20084;-42
2022/06/19 17:43:49;;;;;;;2.38;2.15;;;29.60;40.60;;;;;;8466884;28;20548;-42
2022/06/19 17:47:50;;;;;;;2.97;2.70;;;29.60;40.50;;;;;;8467751;27;20447;-42
2022/06/19 17:52:15;;;;;;;3.75;2.40;;;29.60;40.50;;;;;;8466589;28;20035;-41
2022/06/19 17:56:49;;;;;;;2.92;2.47;;;29.60;40.50;;;;;;8466499;28;20048;-42
2022/06/19 18:01:07;;;;;;;4.05;2.67;;;29.60;40.50;;;;;;8466649;28;20036;-42
2022/06/19 18:05:32;;;;;;;3.15;2.50;;;29.60;40.50;;;;;;8466042;28;20051;-41
2022/06/19 18:09:34;;;;;;;3.00;2.55;;;29.60;40.50;;;;;;8466143;27;20032;-41
2022/06/19 18:13:42;;;;;;;3.20;2.90;;;29.60;40.50;;;;;;8465642;27;20043;-41
2022/06/19 18:22:01;;;;;;;3.35;2.75;;;29.60;40.50;;;;;;8465966;28;20088;-41
2022/06/19 18:26:02;;;;;;;3.50;2.85;;;29.60;40.50;;;;;;8465366;28;20039;-41
2022/06/19 18:30:12;;;;;;;3.30;3.00;;;29.60;40.50;;;;;;8465054;28;20110;-41
2022/06/19 18:34:14;;;;;;;4.60;2.65;;;29.60;40.50;;;;;;8464961;27;20043;-41
2022/06/19 18:38:15;;;;;;;4.05;3.10;;;29.60;40.50;;;;;;8465835;28;20050;-41
2022/06/19 18:42:18;;;;;;;5.03;3.45;;;29.60;40.50;;;;;;8465319;28;20059;-41
2022/06/19 18:46:18;;;;;;;3.22;2.92;;;29.60;40.50;;;;;;8464532;28;20121;-41
2022/06/19 18:50:19;;;;;;;5.93;3.80;;;29.60;40.60;;;;;;8464758;28;20067;-43
2022/06/19 18:54:26;;;;;;;3.60;3.30;;;29.60;40.50;;;;;;8464620;28;20040;-41
2022/06/19 18:58:30;;;;;;;3.15;2.85;;;29.60;40.50;;;;;;8464258;28;20039;-41
2022/06/19 19:02:30;;;;;;;3.22;2.80;;;29.60;40.60;;;;;;8464804;28;20032;-42
2022/06/19 19:06:31;;;;;;;3.83;3.03;;;29.60;40.60;;;;;;8463381;28;20038;-42
2022/06/19 19:10:35;;;;;;;4.90;3.15;;;29.60;40.60;;;;;;8463837;28;20074;-42
2022/06/19 19:14:35;;;;;;;5.40;3.90;;;29.60;40.60;;;;;;8463911;28;20040;-42
2022/06/19 19:18:36;;;;;;;7.20;3.63;;;29.60;40.70;;;;;;8463040;28;20388;-42
2022/06/19 19:22:37;;;;;;;4.22;3.20;;;29.50;40.50;;;;;;8464114;27;20035;-44
2022/06/19 19:26:44;;;;;;;5.20;3.80;;;29.60;40.60;;;;;;8463956;28;20035;-41
2022/06/19 19:30:45;;;;;;;6.65;4.35;;;29.50;40.50;;;;;;8463825;28;20134;-43
2022/06/19 19:34:45;;;;;;;6.25;5.03;;;29.50;40.50;;;;;;8463115;28;20524;-41
2022/06/19 19:38:47;;;;;;;10.45;5.93;;;29.50;40.40;;;;;;8463336;28;20036;-42
2022/06/19 19:42:50;;;;;;;11.82;5.88;;;29.50;40.40;;;;;;8463898;28;20044;-42
2022/06/19 19:46:56;;;;;;;13.48;6.30;;;29.50;40.50;;;;;;8462965;28;20404;-42
2022/06/19 19:50:56;;;;;;;14.32;6.57;;;29.50;40.50;;;;;;8463144;27;20081;-42
2022/06/19 19:55:01;;;;;;;13.43;6.68;;;29.50;40.40;;;;;;8463052;28;20040;-42
2022/06/19 19:59:02;;;;;;;14.98;7.18;;;29.50;40.50;;;;;;8462817;28;20097;-42
2022/06/19 20:03:03;;;;;;;9.93;6.53;;;29.40;40.40;;;;;;8463200;28;20123;-42
2022/06/19 20:11:27;;;;;;;13.47;7.13;;;29.50;40.50;;;;;;8462590;28;20093;-42
2022/06/19 20:15:27;;;;;;;16.02;8.10;;;29.50;41.00;;;;;;8462867;28;20044;-43
2022/06/19 20:19:28;;;;;;;13.40;6.75;;;29.50;40.40;;;;;;8462337;28;20131;-41
2022/06/19 20:23:45;;;;;;;13.35;7.18;;;29.50;40.40;;;;;;8463308;28;20399;-42
2022/06/19 20:27:54;;;;;;;13.60;7.28;;;29.50;40.50;;;;;;8462982;28;20043;-42
2022/06/19 20:31:55;;;;;;;12.85;6.55;;;29.50;40.60;;;;;;8462377;28;20115;-41
2022/06/19 20:35:56;;;;;;;7.60;5.45;;;29.50;40.60;;;;;;8462699;28;20043;-42
2022/06/19 20:39:56;;;;;;;10.13;5.65;;;29.40;40.60;;;;;;8462657;28;20088;-41
2022/06/19 20:43:58;;;;;;;12.63;6.30;;;29.40;40.60;;;;;;8462182;28;20055;-42
2022/06/19 20:48:01;;;;;;;15.50;6.15;;;29.40;40.60;;;;;;8462369;28;20434;-42
2022/06/19 20:52:03;;;;;;;13.52;5.85;;;29.40;40.60;;;;;;8464955;28;20039;-42
2022/06/19 20:56:04;;;;;;;15.40;7.97;;;29.50;40.70;;;;;;8468456;28;20043;-42
2022/06/19 21:00:26;;;;;;;10.98;5.95;;;29.40;40.60;;;;;;8468725;28;20044;-42
2022/06/19 21:04:28;;;;;;;10.48;6.05;;;29.40;40.70;;;;;;8467779;28;20028;-42
2022/06/19 21:08:32;;;;;;;12.90;6.72;;;29.40;40.70;;;;;;8469014;28;20556;-42
2022/06/19 21:12:32;;;;;;;10.30;5.95;;;29.40;40.70;;;;;;8468359;28;20485;-42
2022/06/19 21:16:36;;;;;;;13.20;6.07;;;29.40;40.70;;;;;;8467578;28;20059;-42
2022/06/19 21:20:37;;;;;;;9.93;6.15;;;29.40;40.70;;;;;;8468176;28;20395;-42
2022/06/19 21:24:37;;;;;;;7.68;5.15;;;29.40;40.70;;;;;;8467962;28;20043;-42
2022/06/19 21:28:39;;;;;;;8.38;5.70;;;29.40;40.70;;;;;;8467633;28;20032;-42
2022/06/19 21:32:39;;;;;;;9.63;5.95;;;29.40;40.70;;;;;;8466624;28;20047;-42
2022/06/19 21:36:41;;;;;;;8.48;5.93;;;29.40;40.70;;;;;;8467397;27;20047;-42
2022/06/19 21:40:46;;;;;;;8.00;5.05;;;29.40;40.70;;;;;;8466868;28;20036;-42
2022/06/19 21:44:46;;;;;;;8.90;5.60;;;29.40;40.70;;;;;;8467511;27;20088;-42
2022/06/19 21:48:47;;;;;;;8.52;6.00;;;29.30;40.70;;;;;;8467440;28;20484;-41
2022/06/19 21:52:49;;;;;;;7.47;6.15;;;29.40;40.80;;;;;;8464721;28;20076;-42
2022/06/19 21:56:50;;;;;;;9.25;4.90;;;29.40;40.80;;;;;;8466118;28;20063;-42
2022/06/19 22:00:50;;;;;;;10.45;5.80;;;29.40;40.80;;;;;;8465895;28;20069;-42
2022/06/19 22:04:51;;;;;;;7.22;5.18;;;29.40;40.80;;;;;;8464804;28;20046;-41
2022/06/19 22:08:53;;;;;;;10.23;6.55;;;29.30;40.80;;;;;;8465902;28;20039;-41
2022/06/19 22:12:53;;;;;;;6.20;4.60;;;29.40;40.90;;;;;;8466254;28;20028;-43